Monday, January 21, 2019, 5:11 PM EST
Back to Local

KFWN, Sussex Airport

Location: Sussex, NJ, United States Lat: 41.2
Local Time: 5:11 PM EST (22:11 GMT) Lon: -74.633
Time Zone: US/Eastern Elev: 419 ft

Show me the last for .
Show Decoded

2019-01-21 16:53 METAR KFWN 212153Z AUTO 32013G21KT 10SM FEW045 M13/M22 A3020 RMK AO2 SLP238
                 T11331217 $ =
2019-01-21 15:53 METAR KFWN 212053Z AUTO 33011G27KT 290V360 10SM SCT048 M12/M22 A3016 RMK AO2 PK
                 WND 34027/2047 PRESRR SLP224 T11221217 53028 $ =
2019-01-21 14:53 METAR KFWN 211953Z AUTO VRB06G21KT 10SM BKN042 BKN050 M12/M20 A3011 RMK AO2
                 SLP206 T11221200 $ =
2019-01-21 13:53 METAR KFWN 211853Z AUTO 10SM OVC040 M13/M19 A3008 RMK AO2 SLP195 T11281189 $ =
2019-01-21 12:53 METAR KFWN 211753Z AUTO 30009G16KT 270V330 10SM SCT037 OVC045 M13/M20 A3008 RMK
                 AO2 UPB38E41 SLP195 P0000 60000 T11331200 11133 21178 51013 $ =
2019-01-21 11:53 METAR KFWN 211653Z AUTO VRB06G14KT 10SM BKN038 OVC046 M15/M21 A3007 RMK AO2
                 SLP192 T11501206 $ =
2019-01-21 10:53 METAR KFWN 211553Z AUTO 29010G17KT 10SM OVC036 M16/M22 A3006 RMK AO2 SLP189
                 T11611222 $ =
2019-01-21 09:53 METAR KFWN 211453Z AUTO 29016G29KT 10SM OVC034 M17/M23 A3004 RMK AO2 PK WND
                 34029/1447 SLP182 T11671233 53030 $ =
2019-01-21 08:53 METAR KFWN 211353Z AUTO VRB05KT 10SM OVC038 M18/M24 A3001 RMK AO2 SLP171
                 T11781239 $ =
2019-01-21 07:53 METAR KFWN 211253Z AUTO VRB06G16KT 10SM OVC040 M18/M24 A2998 RMK AO2 SLP161
                 T11781244 $ =
2019-01-21 06:53 METAR KFWN 211153Z AUTO VRB04G16KT 10SM OVC038 M18/M23 A2995 RMK AO2 SLP151
                 60000 70016 T11781233 11139 21178 53028 $ =
2019-01-21 05:53 METAR KFWN 211053Z AUTO VRB04KT 10SM BKN037 OVC043 M17/M23 A2991 RMK AO2 SLP137
                 T11721228 $ =
2019-01-21 04:53 METAR KFWN 210953Z AUTO VRB04KT 10SM BKN030 OVC038 M17/M22 A2988 RMK AO2 SLP128
                 T11671222 $ =
2019-01-21 03:53 METAR KFWN 210853Z AUTO 32007G19KT 280V360 10SM OVC039 M16/M22 A2987 RMK AO2
                 UPE19B21E43 SLP121 P0000 60000 T11561217 51020 $ =
2019-01-21 03:19 METAR KFWN 210819Z AUTO 27005G14KT 10SM OVC034 M16/M21 A2986 RMK AO2 UPE19 P0000
                 T11561206 $ =
2019-01-21 02:53 METAR KFWN 210753Z AUTO VRB05G17KT 4SM UP BKN027 OVC040 M15/M19 A2985 RMK AO2
                 UPB17E27B48SNB27E48 SLP117 P0000 T11501194 $ =
2019-01-21 02:36 METAR KFWN 210736Z AUTO 00000KT 3SM -SN OVC028 M15/M19 A2985 RMK AO2
                 UPB17E27SNB27 P0000 T11501194 $ =
2019-01-21 01:53 METAR KFWN 210653Z AUTO 33009G14KT 10SM CLR M14/M21 A2984 RMK AO2 SLP111
                 T11441211 $ =
2019-01-21 00:53 METAR KFWN 210553Z AUTO VRB06G16KT 10SM CLR M14/M21 A2981 RMK AO2
                 UPB0457RAB19E28 SLP100 P0000 60000 T11391206 11111 21139 $ =
2019-01-20 23:53 METAR KFWN 210453Z AUTO VRB05G17KT 10SM OVC035 M13/M18 A2978 RMK AO2 PK WND
                 30027/0409 UPB30E43 SLP089 P0000 T11281183 400171128 $ =
2019-01-20 22:53 METAR KFWN 210353Z AUTO 29008G19KT 250V320 10SM CLR M12/M18 A2975 RMK AO2 PK WND
                 28029/0301 SLP079 T11221178 $ =
2019-01-20 21:53 METAR KFWN 210253Z AUTO 30011G15KT 10SM FEW034 M12/M17 A2972 RMK AO2
                 UPB0156E31SNE0156B00E11 SLP070 P0000 60000 T11171172 53014 $ =
2019-01-20 20:53 METAR KFWN 210153Z AUTO VRB04KT 6SM -SN SCT024 OVC033 M12/M16 A2970 RMK AO2
                 UPB30E45SNB45 SLP064 P0000 T11171161 $ =
2019-01-20 19:53 METAR KFWN 210053Z AUTO 32011G22KT 290V050 10SM SCT034 M11/M17 A2969 RMK AO2
                 SLP060 T11111167 $ =
2019-01-20 18:53 METAR KFWN 202353Z AUTO 32010G25KT 280V350 10SM BKN031 M11/M16 A2968 RMK AO2 PK
                 WND 33027/2307 PRESRR SLP056 60000 T11111161 11011 21111 51054 $ =
2019-01-20 17:53 METAR KFWN 202253Z AUTO 31014G26KT 250V340 10SM FEW028 M11/M16 A2963 RMK AO2 PK
                 WND 29026/2245 UPE05B39E51 SLP041 P0000 T11061156 $ =
2019-01-20 17:20 METAR KFWN 202220Z AUTO 34011G17KT 310V010 10SM OVC031 M09/M14 A2961 RMK AO2
                 UPE05 P0000 T10941144 $ =

Support USWX by starting your Amazon purchase here.